sensor_id;sensor_type;location;lat;lon;timestamp;temperature;humidity
66608;DHT22;53462;39.616;8.824;2022-11-25T00:01:16;10.60;99.90
66608;DHT22;53462;39.616;8.824;2022-11-25T00:03:42;10.60;99.90
66608;DHT22;53462;39.616;8.824;2022-11-25T00:08:44;10.70;99.90
66608;DHT22;53462;39.616;8.824;2022-11-25T00:11:10;10.70;99.90
66608;DHT22;53462;39.616;8.824;2022-11-25T00:13:37;10.60;99.90
66608;DHT22;53462;39.616;8.824;2022-11-25T00:16:03;10.40;99.90
66608;DHT22;53462;39.616;8.824;2022-11-25T00:18:30;10.50;99.90
66608;DHT22;53462;39.616;8.824;2022-11-25T00:20:55;10.60;99.90
66608;DHT22;53462;39.616;8.824;2022-11-25T00:23:21;10.50;99.90
66608;DHT22;53462;39.616;8.824;2022-11-25T00:25:47;10.50;99.90
66608;DHT22;53462;39.616;8.824;2022-11-25T00:28:13;10.50;99.90
66608;DHT22;53462;39.616;8.824;2022-11-25T00:30:38;10.60;99.90
66608;DHT22;53462;39.616;8.824;2022-11-25T00:33:04;10.70;99.90
66608;DHT22;53462;39.616;8.824;2022-11-25T00:35:30;10.80;99.90
66608;DHT22;53462;39.616;8.824;2022-11-25T00:37:56;10.80;99.90
66608;DHT22;53462;39.616;8.824;2022-11-25T00:40:22;10.90;99.90
66608;DHT22;53462;39.616;8.824;2022-11-25T00:42:47;10.90;99.90
66608;DHT22;53462;39.616;8.824;2022-11-25T00:45:31;10.90;99.90
66608;DHT22;53462;39.616;8.824;2022-11-25T00:47:57;10.80;99.90
66608;DHT22;53462;39.616;8.824;2022-11-25T00:50:23;10.80;99.90
66608;DHT22;53462;39.616;8.824;2022-11-25T00:52:49;10.80;99.90
66608;DHT22;53462;39.616;8.824;2022-11-25T00:55:14;10.80;99.90
66608;DHT22;53462;39.616;8.824;2022-11-25T00:57:41;10.80;99.90
66608;DHT22;53462;39.616;8.824;2022-11-25T01:00:06;10.70;99.90
66608;DHT22;53462;39.616;8.824;2022-11-25T01:02:32;10.60;99.90
66608;DHT22;53462;39.616;8.824;2022-11-25T01:04:58;10.50;99.90
66608;DHT22;53462;39.616;8.824;2022-11-25T01:07:24;10.40;99.90
66608;DHT22;53462;39.616;8.824;2022-11-25T01:09:50;10.40;99.90
66608;DHT22;53462;39.616;8.824;2022-11-25T01:12:15;10.40;99.90
66608;DHT22;53462;39.616;8.824;2022-11-25T01:14:41;10.40;99.90
66608;DHT22;53462;39.616;8.824;2022-11-25T01:17:07;10.30;99.90
66608;DHT22;53462;39.616;8.824;2022-11-25T01:19:33;10.10;99.90
66608;DHT22;53462;39.616;8.824;2022-11-25T01:21:59;10.10;99.90
66608;DHT22;53462;39.616;8.824;2022-11-25T01:24:25;10.20;99.90
66608;DHT22;53462;39.616;8.824;2022-11-25T01:26:52;10.20;99.90
66608;DHT22;53462;39.616;8.824;2022-11-25T01:29:20;10.20;99.90
66608;DHT22;53462;39.616;8.824;2022-11-25T01:31:46;10.20;99.90
66608;DHT22;53462;39.616;8.824;2022-11-25T01:34:17;10.20;99.90
66608;DHT22;53462;39.616;8.824;2022-11-25T01:36:43;10.00;99.90
66608;DHT22;53462;39.616;8.824;2022-11-25T01:39:19;10.00;99.90
66608;DHT22;53462;39.616;8.824;2022-11-25T01:41:45;10.10;99.90
66608;DHT22;53462;39.616;8.824;2022-11-25T01:44:12;10.30;99.90
66608;DHT22;53462;39.616;8.824;2022-11-25T01:49:05;10.30;99.90
66608;DHT22;53462;39.616;8.824;2022-11-25T01:51:43;10.20;99.90
66608;DHT22;53462;39.616;8.824;2022-11-25T01:54:11;10.20;99.90
66608;DHT22;53462;39.616;8.824;2022-11-25T01:56:39;10.20;99.90
66608;DHT22;53462;39.616;8.824;2022-11-25T01:59:08;10.30;99.90
66608;DHT22;53462;39.616;8.824;2022-11-25T02:01:34;10.20;99.90
66608;DHT22;53462;39.616;8.824;2022-11-25T02:04:00;10.20;99.90
66608;DHT22;53462;39.616;8.824;2022-11-25T02:06:31;10.30;99.90
66608;DHT22;53462;39.616;8.824;2022-11-25T02:09:02;10.40;99.90
66608;DHT22;53462;39.616;8.824;2022-11-25T02:11:28;10.30;99.90
66608;DHT22;53462;39.616;8.824;2022-11-25T02:13:55;10.20;99.90
66608;DHT22;53462;39.616;8.824;2022-11-25T02:16:22;10.20;99.90
66608;DHT22;53462;39.616;8.824;2022-11-25T02:18:48;10.10;99.90
66608;DHT22;53462;39.616;8.824;2022-11-25T02:21:15;10.20;99.90
66608;DHT22;53462;39.616;8.824;2022-11-25T02:23:54;10.10;99.90
66608;DHT22;53462;39.616;8.824;2022-11-25T02:26:23;10.10;99.90
66608;DHT22;53462;39.616;8.824;2022-11-25T02:28:49;10.00;99.90
66608;DHT22;53462;39.616;8.824;2022-11-25T02:31:19;10.00;99.90
66608;DHT22;53462;39.616;8.824;2022-11-25T02:33:46;10.10;99.90
66608;DHT22;53462;39.616;8.824;2022-11-25T02:36:13;10.30;99.90
66608;DHT22;53462;39.616;8.824;2022-11-25T02:38:47;10.40;99.90
66608;DHT22;53462;39.616;8.824;2022-11-25T02:41:17;10.40;99.90
66608;DHT22;53462;39.616;8.824;2022-11-25T02:43:48;10.50;99.90
66608;DHT22;53462;39.616;8.824;2022-11-25T02:46:14;10.40;99.90
66608;DHT22;53462;39.616;8.824;2022-11-25T02:48:44;10.40;99.90
66608;DHT22;53462;39.616;8.824;2022-11-25T02:51:11;10.30;99.90
66608;DHT22;53462;39.616;8.824;2022-11-25T02:53:37;10.20;99.90
66608;DHT22;53462;39.616;8.824;2022-11-25T02:56:03;10.20;99.90
66608;DHT22;53462;39.616;8.824;2022-11-25T02:58:29;10.10;99.90
66608;DHT22;53462;39.616;8.824;2022-11-25T03:00:55;10.10;99.90
66608;DHT22;53462;39.616;8.824;2022-11-25T03:03:20;10.10;99.90
66608;DHT22;53462;39.616;8.824;2022-11-25T03:05:46;10.10;99.90
66608;DHT22;53462;39.616;8.824;2022-11-25T03:08:12;10.20;99.90
66608;DHT22;53462;39.616;8.824;2022-11-25T03:10:38;10.10;99.90
66608;DHT22;53462;39.616;8.824;2022-11-25T03:13:05;10.00;99.90
66608;DHT22;53462;39.616;8.824;2022-11-25T03:15:32;10.10;99.90
66608;DHT22;53462;39.616;8.824;2022-11-25T03:17:59;10.00;99.90
66608;DHT22;53462;39.616;8.824;2022-11-25T03:20:26;9.80;99.90
66608;DHT22;53462;39.616;8.824;2022-11-25T03:22:52;9.90;99.90
66608;DHT22;53462;39.616;8.824;2022-11-25T03:25:18;9.70;99.90
66608;DHT22;53462;39.616;8.824;2022-11-25T03:27:46;9.50;99.90
66608;DHT22;53462;39.616;8.824;2022-11-25T03:30:14;9.60;99.90
66608;DHT22;53462;39.616;8.824;2022-11-25T03:32:41;9.70;99.90
66608;DHT22;53462;39.616;8.824;2022-11-25T03:35:07;9.70;99.90
66608;DHT22;53462;39.616;8.824;2022-11-25T03:37:33;9.70;99.90
66608;DHT22;53462;39.616;8.824;2022-11-25T03:39:58;9.70;99.90
66608;DHT22;53462;39.616;8.824;2022-11-25T03:42:24;9.80;99.90
66608;DHT22;53462;39.616;8.824;2022-11-25T03:44:50;9.60;99.90
66608;DHT22;53462;39.616;8.824;2022-11-25T03:47:17;9.60;99.90
66608;DHT22;53462;39.616;8.824;2022-11-25T03:49:42;9.80;99.90
66608;DHT22;53462;39.616;8.824;2022-11-25T03:52:09;10.00;99.90
66608;DHT22;53462;39.616;8.824;2022-11-25T03:54:35;10.20;99.90
66608;DHT22;53462;39.616;8.824;2022-11-25T03:57:14;10.20;99.90
66608;DHT22;53462;39.616;8.824;2022-11-25T03:59:41;10.30;99.90
66608;DHT22;53462;39.616;8.824;2022-11-25T04:02:07;10.30;99.90
66608;DHT22;53462;39.616;8.824;2022-11-25T04:04:33;10.30;99.90
66608;DHT22;53462;39.616;8.824;2022-11-25T04:06:59;10.40;99.90
66608;DHT22;53462;39.616;8.824;2022-11-25T04:09:25;10.50;99.90
66608;DHT22;53462;39.616;8.824;2022-11-25T04:11:52;10.50;99.90
66608;DHT22;53462;39.616;8.824;2022-11-25T04:14:47;10.50;99.90
66608;DHT22;53462;39.616;8.824;2022-11-25T04:17:13;10.60;99.90
66608;DHT22;53462;39.616;8.824;2022-11-25T04:19:39;10.60;99.90
66608;DHT22;53462;39.616;8.824;2022-11-25T04:22:05;10.60;99.90
66608;DHT22;53462;39.616;8.824;2022-11-25T04:24:35;10.60;99.90
66608;DHT22;53462;39.616;8.824;2022-11-25T04:27:02;10.50;99.90
66608;DHT22;53462;39.616;8.824;2022-11-25T04:29:28;10.30;99.90
66608;DHT22;53462;39.616;8.824;2022-11-25T04:31:54;10.30;99.90
66608;DHT22;53462;39.616;8.824;2022-11-25T04:34:20;10.30;99.90
66608;DHT22;53462;39.616;8.824;2022-11-25T04:36:48;10.40;99.90
66608;DHT22;53462;39.616;8.824;2022-11-25T04:39:14;10.50;99.90
66608;DHT22;53462;39.616;8.824;2022-11-25T04:41:41;10.50;99.90
66608;DHT22;53462;39.616;8.824;2022-11-25T04:44:08;10.50;99.90
66608;DHT22;53462;39.616;8.824;2022-11-25T04:46:36;10.40;99.90
66608;DHT22;53462;39.616;8.824;2022-11-25T04:49:04;10.40;99.90
66608;DHT22;53462;39.616;8.824;2022-11-25T04:51:30;10.50;99.90
66608;DHT22;53462;39.616;8.824;2022-11-25T04:53:59;10.60;99.90
66608;DHT22;53462;39.616;8.824;2022-11-25T04:56:25;10.60;99.90
66608;DHT22;53462;39.616;8.824;2022-11-25T04:58:53;10.50;99.90
66608;DHT22;53462;39.616;8.824;2022-11-25T05:01:42;10.40;99.90
66608;DHT22;53462;39.616;8.824;2022-11-25T05:04:19;10.30;99.90
66608;DHT22;53462;39.616;8.824;2022-11-25T05:06:45;10.10;99.90
66608;DHT22;53462;39.616;8.824;2022-11-25T05:09:12;10.00;99.90
66608;DHT22;53462;39.616;8.824;2022-11-25T05:11:39;9.90;99.90
66608;DHT22;53462;39.616;8.824;2022-11-25T05:14:05;9.80;99.90
66608;DHT22;53462;39.616;8.824;2022-11-25T05:16:31;9.50;99.90
66608;DHT22;53462;39.616;8.824;2022-11-25T05:18:58;9.40;99.90
66608;DHT22;53462;39.616;8.824;2022-11-25T05:21:25;9.50;99.90
66608;DHT22;53462;39.616;8.824;2022-11-25T05:23:55;9.60;99.90
66608;DHT22;53462;39.616;8.824;2022-11-25T05:26:21;9.60;99.90
66608;DHT22;53462;39.616;8.824;2022-11-25T05:28:50;9.50;99.90
66608;DHT22;53462;39.616;8.824;2022-11-25T05:31:16;9.60;99.90
66608;DHT22;53462;39.616;8.824;2022-11-25T05:33:42;9.70;99.90
66608;DHT22;53462;39.616;8.824;2022-11-25T05:36:09;9.60;99.90
66608;DHT22;53462;39.616;8.824;2022-11-25T05:38:44;9.70;99.90
66608;DHT22;53462;39.616;8.824;2022-11-25T05:41:13;9.80;99.90
66608;DHT22;53462;39.616;8.824;2022-11-25T05:43:42;9.70;99.90
66608;DHT22;53462;39.616;8.824;2022-11-25T05:46:08;9.50;99.90
66608;DHT22;53462;39.616;8.824;2022-11-25T05:48:37;9.40;99.90
66608;DHT22;53462;39.616;8.824;2022-11-25T05:51:04;9.40;99.90
66608;DHT22;53462;39.616;8.824;2022-11-25T05:53:31;9.40;99.90
66608;DHT22;53462;39.616;8.824;2022-11-25T05:55:59;9.70;99.90
66608;DHT22;53462;39.616;8.824;2022-11-25T05:58:46;10.00;99.90
66608;DHT22;53462;39.616;8.824;2022-11-25T06:01:13;9.90;99.90
66608;DHT22;53462;39.616;8.824;2022-11-25T06:03:39;9.60;99.90
66608;DHT22;53462;39.616;8.824;2022-11-25T06:06:08;9.50;99.90
66608;DHT22;53462;39.616;8.824;2022-11-25T06:08:34;9.70;99.90
66608;DHT22;53462;39.616;8.824;2022-11-25T06:11:07;9.50;99.90
66608;DHT22;53462;39.616;8.824;2022-11-25T06:13:33;9.60;99.90
66608;DHT22;53462;39.616;8.824;2022-11-25T06:15:59;9.70;99.90
66608;DHT22;53462;39.616;8.824;2022-11-25T06:18:25;10.00;99.90
66608;DHT22;53462;39.616;8.824;2022-11-25T06:20:55;10.10;99.90
66608;DHT22;53462;39.616;8.824;2022-11-25T06:23:21;10.20;99.90
66608;DHT22;53462;39.616;8.824;2022-11-25T06:25:46;10.00;99.90
66608;DHT22;53462;39.616;8.824;2022-11-25T06:28:12;9.70;99.90
66608;DHT22;53462;39.616;8.824;2022-11-25T06:30:38;9.50;99.90
66608;DHT22;53462;39.616;8.824;2022-11-25T06:33:30;9.30;99.90
66608;DHT22;53462;39.616;8.824;2022-11-25T06:36:01;9.20;99.90
66608;DHT22;53462;39.616;8.824;2022-11-25T06:38:27;9.20;99.90
66608;DHT22;53462;39.616;8.824;2022-11-25T06:40:53;9.20;99.90
66608;DHT22;53462;39.616;8.824;2022-11-25T06:43:18;9.30;99.90
66608;DHT22;53462;39.616;8.824;2022-11-25T06:45:44;9.50;99.90
66608;DHT22;53462;39.616;8.824;2022-11-25T06:48:10;9.60;99.90
66608;DHT22;53462;39.616;8.824;2022-11-25T06:50:36;9.70;99.90
66608;DHT22;53462;39.616;8.824;2022-11-25T06:53:01;9.90;99.90
66608;DHT22;53462;39.616;8.824;2022-11-25T06:55:27;10.00;99.90
66608;DHT22;53462;39.616;8.824;2022-11-25T06:57:53;10.20;99.90
66608;DHT22;53462;39.616;8.824;2022-11-25T07:00:19;10.20;99.90
66608;DHT22;53462;39.616;8.824;2022-11-25T07:02:45;10.50;99.90
66608;DHT22;53462;39.616;8.824;2022-11-25T07:05:11;10.50;99.90
66608;DHT22;53462;39.616;8.824;2022-11-25T07:07:37;10.70;99.90
66608;DHT22;53462;39.616;8.824;2022-11-25T07:10:03;10.80;99.90
66608;DHT22;53462;39.616;8.824;2022-11-25T07:12:29;10.70;99.90
66608;DHT22;53462;39.616;8.824;2022-11-25T07:14:55;10.60;99.90
66608;DHT22;53462;39.616;8.824;2022-11-25T07:17:20;10.60;99.90
66608;DHT22;53462;39.616;8.824;2022-11-25T07:19:46;11.00;99.90
66608;DHT22;53462;39.616;8.824;2022-11-25T07:22:12;11.30;99.90
66608;DHT22;53462;39.616;8.824;2022-11-25T07:24:38;11.70;99.90
66608;DHT22;53462;39.616;8.824;2022-11-25T07:27:03;12.00;99.90
66608;DHT22;53462;39.616;8.824;2022-11-25T07:29:31;12.60;99.90
66608;DHT22;53462;39.616;8.824;2022-11-25T07:31:57;12.70;99.90
66608;DHT22;53462;39.616;8.824;2022-11-25T07:34:23;12.20;99.90
66608;DHT22;53462;39.616;8.824;2022-11-25T07:36:49;12.10;99.90
66608;DHT22;53462;39.616;8.824;2022-11-25T07:39:19;11.60;99.90
66608;DHT22;53462;39.616;8.824;2022-11-25T07:41:47;11.50;99.90
66608;DHT22;53462;39.616;8.824;2022-11-25T07:44:13;11.50;99.90
66608;DHT22;53462;39.616;8.824;2022-11-25T07:46:51;11.50;99.90
66608;DHT22;53462;39.616;8.824;2022-11-25T07:49:21;11.50;99.90
66608;DHT22;53462;39.616;8.824;2022-11-25T07:54:15;14.00;99.90
66608;DHT22;53462;39.616;8.824;2022-11-25T07:56:41;14.30;99.90
66608;DHT22;53462;39.616;8.824;2022-11-25T07:59:13;15.40;98.50
66608;DHT22;53462;39.616;8.824;2022-11-25T08:01:39;17.40;93.90
66608;DHT22;53462;39.616;8.824;2022-11-25T08:04:06;16.50;88.10
66608;DHT22;53462;39.616;8.824;2022-11-25T08:06:32;16.10;96.20
66608;DHT22;53462;39.616;8.824;2022-11-25T08:09:01;19.00;84.70
66608;DHT22;53462;39.616;8.824;2022-11-25T08:11:28;18.30;81.10
66608;DHT22;53462;39.616;8.824;2022-11-25T08:13:53;16.80;88.00
66608;DHT22;53462;39.616;8.824;2022-11-25T08:16:20;16.50;90.60
66608;DHT22;53462;39.616;8.824;2022-11-25T08:18:46;16.50;88.70
66608;DHT22;53462;39.616;8.824;2022-11-25T08:21:12;16.90;89.90
66608;DHT22;53462;39.616;8.824;2022-11-25T08:23:39;15.70;92.30
66608;DHT22;53462;39.616;8.824;2022-11-25T08:26:06;18.10;92.80
66608;DHT22;53462;39.616;8.824;2022-11-25T08:28:32;19.40;79.60
66608;DHT22;53462;39.616;8.824;2022-11-25T08:31:01;18.20;85.80
66608;DHT22;53462;39.616;8.824;2022-11-25T08:33:28;21.10;77.20
66608;DHT22;53462;39.616;8.824;2022-11-25T08:35:54;22.60;65.10
66608;DHT22;53462;39.616;8.824;2022-11-25T08:38:19;23.60;61.30
66608;DHT22;53462;39.616;8.824;2022-11-25T08:40:45;21.10;62.70
66608;DHT22;53462;39.616;8.824;2022-11-25T08:43:11;22.40;60.40
66608;DHT22;53462;39.616;8.824;2022-11-25T08:45:37;21.00;62.30
66608;DHT22;53462;39.616;8.824;2022-11-25T08:48:04;20.50;67.80
66608;DHT22;53462;39.616;8.824;2022-11-25T08:50:30;20.20;66.90
66608;DHT22;53462;39.616;8.824;2022-11-25T08:52:57;19.10;70.80
66608;DHT22;53462;39.616;8.824;2022-11-25T08:55:24;17.70;76.10
66608;DHT22;53462;39.616;8.824;2022-11-25T08:57:52;17.80;77.60
66608;DHT22;53462;39.616;8.824;2022-11-25T09:00:18;18.80;76.80
66608;DHT22;53462;39.616;8.824;2022-11-25T09:02:44;19.20;75.30
66608;DHT22;53462;39.616;8.824;2022-11-25T09:05:11;20.60;70.40
66608;DHT22;53462;39.616;8.824;2022-11-25T09:07:37;20.60;69.10
66608;DHT22;53462;39.616;8.824;2022-11-25T09:10:03;20.60;67.90
66608;DHT22;53462;39.616;8.824;2022-11-25T09:12:29;23.60;56.00
66608;DHT22;53462;39.616;8.824;2022-11-25T09:14:55;23.50;54.30
66608;DHT22;53462;39.616;8.824;2022-11-25T09:17:21;23.10;52.10
66608;DHT22;53462;39.616;8.824;2022-11-25T09:19:46;21.20;59.70
66608;DHT22;53462;39.616;8.824;2022-11-25T09:22:12;20.90;61.10
66608;DHT22;53462;39.616;8.824;2022-11-25T09:24:38;21.30;59.30
66608;DHT22;53462;39.616;8.824;2022-11-25T09:27:06;21.10;61.70
66608;DHT22;53462;39.616;8.824;2022-11-25T09:29:31;21.50;59.60
66608;DHT22;53462;39.616;8.824;2022-11-25T09:31:58;22.70;55.50
66608;DHT22;53462;39.616;8.824;2022-11-25T09:34:23;22.10;55.70
66608;DHT22;53462;39.616;8.824;2022-11-25T09:36:49;22.20;53.50
66608;DHT22;53462;39.616;8.824;2022-11-25T09:39:16;24.20;49.00
66608;DHT22;53462;39.616;8.824;2022-11-25T09:52:47;25.90;43.60
66608;DHT22;53462;39.616;8.824;2022-11-25T09:55:18;22.80;49.60
66608;DHT22;53462;39.616;8.824;2022-11-25T09:57:56;23.30;50.30
66608;DHT22;53462;39.616;8.824;2022-11-25T10:00:23;21.40;52.30
66608;DHT22;53462;39.616;8.824;2022-11-25T10:05:25;19.90;59.00
66608;DHT22;53462;39.616;8.824;2022-11-25T10:07:52;19.40;62.60
66608;DHT22;53462;39.616;8.824;2022-11-25T10:12:49;23.90;48.90
66608;DHT22;53462;39.616;8.824;2022-11-25T10:18:02;20.60;54.70
66608;DHT22;53462;39.616;8.824;2022-11-25T10:20:34;21.80;55.50
66608;DHT22;53462;39.616;8.824;2022-11-25T10:23:08;20.00;57.70
66608;DHT22;53462;39.616;8.824;2022-11-25T10:25:38;22.10;57.00
66608;DHT22;53462;39.616;8.824;2022-11-25T10:28:17;22.30;52.60
66608;DHT22;53462;39.616;8.824;2022-11-25T10:33:19;22.60;51.90
66608;DHT22;53462;39.616;8.824;2022-11-25T10:35:49;24.40;48.70
66608;DHT22;53462;39.616;8.824;2022-11-25T10:38:21;22.70;50.70
66608;DHT22;53462;39.616;8.824;2022-11-25T10:40:49;22.20;55.50
66608;DHT22;53462;39.616;8.824;2022-11-25T10:43:15;22.30;53.80
66608;DHT22;53462;39.616;8.824;2022-11-25T10:45:46;21.90;58.30
66608;DHT22;53462;39.616;8.824;2022-11-25T10:56:48;20.20;60.50
66608;DHT22;53462;39.616;8.824;2022-11-25T10:59:20;19.40;65.50
66608;DHT22;53462;39.616;8.824;2022-11-25T11:01:46;19.60;64.80
66608;DHT22;53462;39.616;8.824;2022-11-25T11:04:12;19.40;64.40
66608;DHT22;53462;39.616;8.824;2022-11-25T11:06:41;19.60;65.40
66608;DHT22;53462;39.616;8.824;2022-11-25T11:11:51;20.10;64.30
66608;DHT22;53462;39.616;8.824;2022-11-25T11:14:20;19.90;65.50
66608;DHT22;53462;39.616;8.824;2022-11-25T11:16:53;19.70;66.90
66608;DHT22;53462;39.616;8.824;2022-11-25T11:19:20;19.80;66.90
66608;DHT22;53462;39.616;8.824;2022-11-25T11:21:46;19.80;67.70
66608;DHT22;53462;39.616;8.824;2022-11-25T11:24:28;19.60;69.30
66608;DHT22;53462;39.616;8.824;2022-11-25T11:29:34;19.50;70.10
66608;DHT22;53462;39.616;8.824;2022-11-25T11:32:00;19.70;70.50
66608;DHT22;53462;39.616;8.824;2022-11-25T11:40:24;19.50;72.00
66608;DHT22;53462;39.616;8.824;2022-11-25T11:50:32;19.80;72.20
66608;DHT22;53462;39.616;8.824;2022-11-25T11:55:46;19.10;75.20
66608;DHT22;53462;39.616;8.824;2022-11-25T11:58:17;19.20;77.90
66608;DHT22;53462;39.616;8.824;2022-11-25T12:00:51;19.40;76.90
66608;DHT22;53462;39.616;8.824;2022-11-25T12:03:20;19.80;74.90
66608;DHT22;53462;39.616;8.824;2022-11-25T12:05:47;20.00;74.80
66608;DHT22;53462;39.616;8.824;2022-11-25T12:13:24;20.40;72.60
66608;DHT22;53462;39.616;8.824;2022-11-25T12:21:06;20.30;73.50
66608;DHT22;53462;39.616;8.824;2022-11-25T12:26:23;20.10;75.90
66608;DHT22;53462;39.616;8.824;2022-11-25T12:28:51;20.40;74.40
66608;DHT22;53462;39.616;8.824;2022-11-25T12:31:18;20.30;75.20
66608;DHT22;53462;39.616;8.824;2022-11-25T12:34:01;20.00;74.60
66608;DHT22;53462;39.616;8.824;2022-11-25T12:36:37;20.00;77.10
66608;DHT22;53462;39.616;8.824;2022-11-25T12:39:04;19.80;75.90
66608;DHT22;53462;39.616;8.824;2022-11-25T12:41:42;19.70;76.40
66608;DHT22;53462;39.616;8.824;2022-11-25T12:44:12;20.00;76.50
66608;DHT22;53462;39.616;8.824;2022-11-25T12:46:40;19.70;78.50
66608;DHT22;53462;39.616;8.824;2022-11-25T12:49:13;19.70;79.20
66608;DHT22;53462;39.616;8.824;2022-11-25T13:00:19;19.00;85.40
66608;DHT22;53462;39.616;8.824;2022-11-25T13:05:51;19.50;85.70
66608;DHT22;53462;39.616;8.824;2022-11-25T13:10:52;19.90;81.30
66608;DHT22;53462;39.616;8.824;2022-11-25T13:16:07;19.30;86.60
66608;DHT22;53462;39.616;8.824;2022-11-25T13:18:36;19.30;86.00
66608;DHT22;53462;39.616;8.824;2022-11-25T13:21:06;19.20;88.10
66608;DHT22;53462;39.616;8.824;2022-11-25T13:24:08;19.00;88.90
66608;DHT22;53462;39.616;8.824;2022-11-25T13:29:00;18.80;90.60
66608;DHT22;53462;39.616;8.824;2022-11-25T13:31:33;18.60;92.00
66608;DHT22;53462;39.616;8.824;2022-11-25T13:34:08;18.40;93.30
66608;DHT22;53462;39.616;8.824;2022-11-25T13:36:53;18.30;94.10
66608;DHT22;53462;39.616;8.824;2022-11-25T13:41:56;18.20;96.00
66608;DHT22;53462;39.616;8.824;2022-11-25T13:44:23;18.10;95.90
66608;DHT22;53462;39.616;8.824;2022-11-25T13:46:53;18.10;97.30
66608;DHT22;53462;39.616;8.824;2022-11-25T13:49:27;18.10;98.00
66608;DHT22;53462;39.616;8.824;2022-11-25T13:51:54;18.00;98.30
66608;DHT22;53462;39.616;8.824;2022-11-25T13:54:23;18.00;99.00
66608;DHT22;53462;39.616;8.824;2022-11-25T13:56:57;18.10;99.30
66608;DHT22;53462;39.616;8.824;2022-11-25T13:59:34;18.00;98.30
66608;DHT22;53462;39.616;8.824;2022-11-25T14:04:51;18.10;99.40
66608;DHT22;53462;39.616;8.824;2022-11-25T14:07:28;18.00;99.20
66608;DHT22;53462;39.616;8.824;2022-11-25T14:17:46;17.70;99.90
66608;DHT22;53462;39.616;8.824;2022-11-25T14:25:31;17.50;99.90
66608;DHT22;53462;39.616;8.824;2022-11-25T14:28:07;17.50;99.90
66608;DHT22;53462;39.616;8.824;2022-11-25T14:30:33;17.50;99.90
66608;DHT22;53462;39.616;8.824;2022-11-25T14:33:01;17.50;99.90
66608;DHT22;53462;39.616;8.824;2022-11-25T14:35:29;17.40;99.90
66608;DHT22;53462;39.616;8.824;2022-11-25T14:38:01;17.40;99.90
66608;DHT22;53462;39.616;8.824;2022-11-25T14:43:01;17.30;99.90
66608;DHT22;53462;39.616;8.824;2022-11-25T14:45:29;17.40;99.90
66608;DHT22;53462;39.616;8.824;2022-11-25T14:47:55;17.30;99.90
66608;DHT22;53462;39.616;8.824;2022-11-25T14:50:21;17.30;99.90
66608;DHT22;53462;39.616;8.824;2022-11-25T14:52:47;17.30;99.90
66608;DHT22;53462;39.616;8.824;2022-11-25T14:55:25;17.20;99.90
66608;DHT22;53462;39.616;8.824;2022-11-25T14:57:52;17.20;99.90
66608;DHT22;53462;39.616;8.824;2022-11-25T15:00:18;17.20;99.90
66608;DHT22;53462;39.616;8.824;2022-11-25T15:02:52;17.20;99.90
66608;DHT22;53462;39.616;8.824;2022-11-25T15:05:19;17.10;99.90
66608;DHT22;53462;39.616;8.824;2022-11-25T15:10:33;17.20;99.90
66608;DHT22;53462;39.616;8.824;2022-11-25T15:13:02;17.10;99.90
66608;DHT22;53462;39.616;8.824;2022-11-25T15:15:31;17.10;99.90
66608;DHT22;53462;39.616;8.824;2022-11-25T15:17:57;17.10;99.90
66608;DHT22;53462;39.616;8.824;2022-11-25T15:20:23;17.10;99.90
66608;DHT22;53462;39.616;8.824;2022-11-25T15:22:49;17.10;99.90
66608;DHT22;53462;39.616;8.824;2022-11-25T15:25:16;17.20;99.90
66608;DHT22;53462;39.616;8.824;2022-11-25T15:27:44;17.10;99.90
66608;DHT22;53462;39.616;8.824;2022-11-25T15:30:23;17.10;99.90
66608;DHT22;53462;39.616;8.824;2022-11-25T15:32:50;17.00;99.90
66608;DHT22;53462;39.616;8.824;2022-11-25T15:35:16;17.00;99.90
66608;DHT22;53462;39.616;8.824;2022-11-25T15:37:42;17.00;99.90
66608;DHT22;53462;39.616;8.824;2022-11-25T15:42:52;17.00;99.90
66608;DHT22;53462;39.616;8.824;2022-11-25T15:45:19;17.00;99.90
66608;DHT22;53462;39.616;8.824;2022-11-25T15:47:45;16.90;99.90
66608;DHT22;53462;39.616;8.824;2022-11-25T15:50:21;16.90;99.90
66608;DHT22;53462;39.616;8.824;2022-11-25T15:52:48;16.90;99.90
66608;DHT22;53462;39.616;8.824;2022-11-25T15:57:49;16.90;99.90
66608;DHT22;53462;39.616;8.824;2022-11-25T16:00:17;17.00;99.90
66608;DHT22;53462;39.616;8.824;2022-11-25T16:13:24;16.80;99.90
66608;DHT22;53462;39.616;8.824;2022-11-25T16:15:55;16.80;99.90
66608;DHT22;53462;39.616;8.824;2022-11-25T16:18:22;16.70;99.90
66608;DHT22;53462;39.616;8.824;2022-11-25T16:20:49;16.70;99.90
66608;DHT22;53462;39.616;8.824;2022-11-25T16:23:16;16.70;99.90
66608;DHT22;53462;39.616;8.824;2022-11-25T16:25:49;16.80;99.90
66608;DHT22;53462;39.616;8.824;2022-11-25T16:28:17;16.70;99.90
66608;DHT22;53462;39.616;8.824;2022-11-25T16:30:43;16.80;99.90
66608;DHT22;53462;39.616;8.824;2022-11-25T16:33:09;16.70;99.90
66608;DHT22;53462;39.616;8.824;2022-11-25T16:35:35;16.80;99.90
66608;DHT22;53462;39.616;8.824;2022-11-25T16:38:01;16.80;99.90
66608;DHT22;53462;39.616;8.824;2022-11-25T16:40:27;16.80;99.90
66608;DHT22;53462;39.616;8.824;2022-11-25T16:42:54;16.90;99.90
66608;DHT22;53462;39.616;8.824;2022-11-25T16:45:24;17.00;99.90
66608;DHT22;53462;39.616;8.824;2022-11-25T16:47:50;17.00;99.90
66608;DHT22;53462;39.616;8.824;2022-11-25T16:50:17;17.10;99.90
66608;DHT22;53462;39.616;8.824;2022-11-25T16:52:43;17.10;99.90
66608;DHT22;53462;39.616;8.824;2022-11-25T16:55:09;17.10;99.90
66608;DHT22;53462;39.616;8.824;2022-11-25T16:57:35;17.10;99.90
66608;DHT22;53462;39.616;8.824;2022-11-25T17:00:04;17.00;99.90
66608;DHT22;53462;39.616;8.824;2022-11-25T17:02:33;16.60;99.90
66608;DHT22;53462;39.616;8.824;2022-11-25T17:05:21;16.00;99.90
66608;DHT22;53462;39.616;8.824;2022-11-25T17:07:45;15.70;99.90
66608;DHT22;53462;39.616;8.824;2022-11-25T17:10:11;15.30;99.90
66608;DHT22;53462;39.616;8.824;2022-11-25T17:12:37;15.10;99.90
66608;DHT22;53462;39.616;8.824;2022-11-25T17:15:04;15.20;99.90
66608;DHT22;53462;39.616;8.824;2022-11-25T17:17:30;15.00;99.90
66608;DHT22;53462;39.616;8.824;2022-11-25T17:19:56;15.00;99.90
66608;DHT22;53462;39.616;8.824;2022-11-25T17:22:24;14.90;99.90
66608;DHT22;53462;39.616;8.824;2022-11-25T17:24:50;14.80;99.90
66608;DHT22;53462;39.616;8.824;2022-11-25T17:27:17;14.60;99.90
66608;DHT22;53462;39.616;8.824;2022-11-25T17:29:44;14.70;99.90
66608;DHT22;53462;39.616;8.824;2022-11-25T17:32:11;14.50;99.90
66608;DHT22;53462;39.616;8.824;2022-11-25T17:34:37;14.50;99.90
66608;DHT22;53462;39.616;8.824;2022-11-25T17:37:03;14.40;99.90
66608;DHT22;53462;39.616;8.824;2022-11-25T17:39:28;14.30;99.90
66608;DHT22;53462;39.616;8.824;2022-11-25T17:41:54;14.30;99.90
66608;DHT22;53462;39.616;8.824;2022-11-25T17:44:24;14.20;99.90
66608;DHT22;53462;39.616;8.824;2022-11-25T17:46:51;14.10;99.90
66608;DHT22;53462;39.616;8.824;2022-11-25T17:49:17;14.10;99.90